sensor_id;sensor_type;location;lat;lon;timestamp;temperature;humidity
47482;DHT22;33219;47.410;9.730;2023-05-10T00:01:23;12.50;99.90
47482;DHT22;33219;47.410;9.730;2023-05-10T00:03:50;12.50;99.90
47482;DHT22;33219;47.410;9.730;2023-05-10T00:06:18;12.50;99.90
47482;DHT22;33219;47.410;9.730;2023-05-10T00:08:45;12.50;99.90
47482;DHT22;33219;47.410;9.730;2023-05-10T00:11:13;12.50;99.90
47482;DHT22;33219;47.410;9.730;2023-05-10T00:13:40;12.50;99.90
47482;DHT22;33219;47.410;9.730;2023-05-10T00:16:08;12.50;99.90
47482;DHT22;33219;47.410;9.730;2023-05-10T00:18:35;12.50;99.90
47482;DHT22;33219;47.410;9.730;2023-05-10T00:21:03;12.50;99.90
47482;DHT22;33219;47.410;9.730;2023-05-10T00:23:31;12.50;99.90
47482;DHT22;33219;47.410;9.730;2023-05-10T00:25:58;12.50;99.90
47482;DHT22;33219;47.410;9.730;2023-05-10T00:28:27;12.50;99.90
47482;DHT22;33219;47.410;9.730;2023-05-10T00:30:55;12.50;99.90
47482;DHT22;33219;47.410;9.730;2023-05-10T00:33:23;12.50;99.90
47482;DHT22;33219;47.410;9.730;2023-05-10T00:35:51;12.50;99.90
47482;DHT22;33219;47.410;9.730;2023-05-10T00:38:18;12.60;99.90
47482;DHT22;33219;47.410;9.730;2023-05-10T00:40:46;12.60;99.90
47482;DHT22;33219;47.410;9.730;2023-05-10T00:43:14;12.60;99.90
47482;DHT22;33219;47.410;9.730;2023-05-10T00:45:42;12.70;99.90
47482;DHT22;33219;47.410;9.730;2023-05-10T00:48:09;12.70;99.90
47482;DHT22;33219;47.410;9.730;2023-05-10T00:50:37;12.70;99.90
47482;DHT22;33219;47.410;9.730;2023-05-10T00:53:06;12.70;99.90
47482;DHT22;33219;47.410;9.730;2023-05-10T00:55:34;12.70;99.90
47482;DHT22;33219;47.410;9.730;2023-05-10T00:58:02;12.80;99.90
47482;DHT22;33219;47.410;9.730;2023-05-10T01:00:30;12.80;99.90
47482;DHT22;33219;47.410;9.730;2023-05-10T01:02:58;12.90;99.90
47482;DHT22;33219;47.410;9.730;2023-05-10T01:05:26;12.90;99.90
47482;DHT22;33219;47.410;9.730;2023-05-10T01:07:53;12.90;99.90
47482;DHT22;33219;47.410;9.730;2023-05-10T01:10:21;12.90;99.90
47482;DHT22;33219;47.410;9.730;2023-05-10T01:12:49;12.80;99.90
47482;DHT22;33219;47.410;9.730;2023-05-10T01:15:17;12.70;99.90
47482;DHT22;33219;47.410;9.730;2023-05-10T01:17:46;12.60;99.90
47482;DHT22;33219;47.410;9.730;2023-05-10T01:20:15;12.50;99.90
47482;DHT22;33219;47.410;9.730;2023-05-10T01:23:04;12.40;99.90
47482;DHT22;33219;47.410;9.730;2023-05-10T01:34:09;12.30;99.90
47482;DHT22;33219;47.410;9.730;2023-05-10T01:36:47;12.30;99.90
47482;DHT22;33219;47.410;9.730;2023-05-10T01:42:11;12.20;99.90
47482;DHT22;33219;47.410;9.730;2023-05-10T01:45:04;12.00;99.90
47482;DHT22;33219;47.410;9.730;2023-05-10T01:47:54;11.90;99.90
47482;DHT22;33219;47.410;9.730;2023-05-10T01:50:06;11.90;99.90
47482;DHT22;33219;47.410;9.730;2023-05-10T01:52:37;11.80;99.90
47482;DHT22;33219;47.410;9.730;2023-05-10T01:55:08;11.80;99.90
47482;DHT22;33219;47.410;9.730;2023-05-10T01:57:37;11.70;99.90
47482;DHT22;33219;47.410;9.730;2023-05-10T02:00:07;11.70;99.90
47482;DHT22;33219;47.410;9.730;2023-05-10T02:02:37;11.70;99.90
47482;DHT22;33219;47.410;9.730;2023-05-10T02:05:06;11.60;99.90
47482;DHT22;33219;47.410;9.730;2023-05-10T02:07:36;11.60;99.90
47482;DHT22;33219;47.410;9.730;2023-05-10T02:10:08;11.60;99.90
47482;DHT22;33219;47.410;9.730;2023-05-10T02:12:40;11.60;99.90
47482;DHT22;33219;47.410;9.730;2023-05-10T02:15:08;11.70;99.90
47482;DHT22;33219;47.410;9.730;2023-05-10T02:17:37;11.70;99.90
47482;DHT22;33219;47.410;9.730;2023-05-10T02:20:07;11.70;99.90
47482;DHT22;33219;47.410;9.730;2023-05-10T02:22:36;11.70;99.90
47482;DHT22;33219;47.410;9.730;2023-05-10T02:25:04;11.70;99.90
47482;DHT22;33219;47.410;9.730;2023-05-10T02:27:34;11.70;99.90
47482;DHT22;33219;47.410;9.730;2023-05-10T02:30:02;11.70;99.90
47482;DHT22;33219;47.410;9.730;2023-05-10T02:32:30;11.70;99.90
47482;DHT22;33219;47.410;9.730;2023-05-10T02:34:59;11.70;99.90
47482;DHT22;33219;47.410;9.730;2023-05-10T02:37:28;11.60;99.90
47482;DHT22;33219;47.410;9.730;2023-05-10T02:39:57;11.60;99.90
47482;DHT22;33219;47.410;9.730;2023-05-10T02:42:31;11.50;99.90
47482;DHT22;33219;47.410;9.730;2023-05-10T02:45:01;11.60;99.90
47482;DHT22;33219;47.410;9.730;2023-05-10T02:47:29;11.50;99.90
47482;DHT22;33219;47.410;9.730;2023-05-10T02:49:57;11.50;99.90
47482;DHT22;33219;47.410;9.730;2023-05-10T02:52:28;11.60;99.90
47482;DHT22;33219;47.410;9.730;2023-05-10T02:54:58;11.60;99.90
47482;DHT22;33219;47.410;9.730;2023-05-10T02:57:28;11.60;99.90
47482;DHT22;33219;47.410;9.730;2023-05-10T02:59:57;11.60;99.90
47482;DHT22;33219;47.410;9.730;2023-05-10T03:02:24;11.60;99.90
47482;DHT22;33219;47.410;9.730;2023-05-10T03:04:52;11.60;99.90
47482;DHT22;33219;47.410;9.730;2023-05-10T03:07:20;11.60;99.90
47482;DHT22;33219;47.410;9.730;2023-05-10T03:09:48;11.60;99.90
47482;DHT22;33219;47.410;9.730;2023-05-10T03:15:25;11.60;99.90
47482;DHT22;33219;47.410;9.730;2023-05-10T03:18:18;11.60;99.90
47482;DHT22;33219;47.410;9.730;2023-05-10T03:20:55;11.60;99.90
47482;DHT22;33219;47.410;9.730;2023-05-10T03:23:23;11.60;99.90
47482;DHT22;33219;47.410;9.730;2023-05-10T03:25:52;11.60;99.90
47482;DHT22;33219;47.410;9.730;2023-05-10T03:28:21;11.60;99.90
47482;DHT22;33219;47.410;9.730;2023-05-10T03:30:49;11.50;99.90
47482;DHT22;33219;47.410;9.730;2023-05-10T03:33:19;11.50;99.90
47482;DHT22;33219;47.410;9.730;2023-05-10T03:35:46;11.50;99.90
47482;DHT22;33219;47.410;9.730;2023-05-10T03:38:14;11.40;99.90
47482;DHT22;33219;47.410;9.730;2023-05-10T03:40:42;11.40;99.90
47482;DHT22;33219;47.410;9.730;2023-05-10T03:43:09;11.40;99.90
47482;DHT22;33219;47.410;9.730;2023-05-10T03:45:37;11.40;99.90
47482;DHT22;33219;47.410;9.730;2023-05-10T03:48:05;11.40;99.90
47482;DHT22;33219;47.410;9.730;2023-05-10T03:50:32;11.40;99.90
47482;DHT22;33219;47.410;9.730;2023-05-10T03:53:00;11.40;99.90
47482;DHT22;33219;47.410;9.730;2023-05-10T03:55:28;11.50;99.90
47482;DHT22;33219;47.410;9.730;2023-05-10T03:57:56;11.50;99.90
47482;DHT22;33219;47.410;9.730;2023-05-10T04:00:23;11.50;99.90
47482;DHT22;33219;47.410;9.730;2023-05-10T04:02:51;11.50;99.90
47482;DHT22;33219;47.410;9.730;2023-05-10T04:05:19;11.50;99.90
47482;DHT22;33219;47.410;9.730;2023-05-10T04:07:46;11.50;99.90
47482;DHT22;33219;47.410;9.730;2023-05-10T04:10:15;11.60;99.90
47482;DHT22;33219;47.410;9.730;2023-05-10T04:12:44;11.60;99.90
47482;DHT22;33219;47.410;9.730;2023-05-10T04:15:11;11.50;99.90
47482;DHT22;33219;47.410;9.730;2023-05-10T04:17:39;11.60;99.90
47482;DHT22;33219;47.410;9.730;2023-05-10T04:20:07;11.60;99.90
47482;DHT22;33219;47.410;9.730;2023-05-10T04:22:34;11.60;99.90
47482;DHT22;33219;47.410;9.730;2023-05-10T04:25:02;11.60;99.90
47482;DHT22;33219;47.410;9.730;2023-05-10T04:27:30;11.60;99.90
47482;DHT22;33219;47.410;9.730;2023-05-10T04:29:57;11.60;99.90
47482;DHT22;33219;47.410;9.730;2023-05-10T04:32:25;11.60;99.90
47482;DHT22;33219;47.410;9.730;2023-05-10T04:34:52;11.60;99.90
47482;DHT22;33219;47.410;9.730;2023-05-10T04:37:20;11.50;99.90
47482;DHT22;33219;47.410;9.730;2023-05-10T04:39:49;11.60;99.90
47482;DHT22;33219;47.410;9.730;2023-05-10T04:42:17;11.50;99.90
47482;DHT22;33219;47.410;9.730;2023-05-10T04:44:44;11.60;99.90
47482;DHT22;33219;47.410;9.730;2023-05-10T04:47:12;11.60;99.90
47482;DHT22;33219;47.410;9.730;2023-05-10T04:49:39;11.60;99.90
47482;DHT22;33219;47.410;9.730;2023-05-10T04:52:07;11.70;99.90
47482;DHT22;33219;47.410;9.730;2023-05-10T04:54:34;11.70;99.90
47482;DHT22;33219;47.410;9.730;2023-05-10T04:57:02;11.70;99.90
47482;DHT22;33219;47.410;9.730;2023-05-10T04:59:29;11.60;99.90
47482;DHT22;33219;47.410;9.730;2023-05-10T05:01:57;11.60;99.90
47482;DHT22;33219;47.410;9.730;2023-05-10T05:04:24;11.60;99.90
47482;DHT22;33219;47.410;9.730;2023-05-10T05:06:52;11.60;99.90
47482;DHT22;33219;47.410;9.730;2023-05-10T05:09:24;11.50;99.90
47482;DHT22;33219;47.410;9.730;2023-05-10T05:11:52;11.60;99.90
47482;DHT22;33219;47.410;9.730;2023-05-10T05:14:19;11.70;99.90
47482;DHT22;33219;47.410;9.730;2023-05-10T05:16:48;11.70;99.90
47482;DHT22;33219;47.410;9.730;2023-05-10T05:19:21;11.80;99.90
47482;DHT22;33219;47.410;9.730;2023-05-10T05:21:47;11.70;99.90
47482;DHT22;33219;47.410;9.730;2023-05-10T05:24:14;11.70;99.90
47482;DHT22;33219;47.410;9.730;2023-05-10T05:26:45;11.80;99.90
47482;DHT22;33219;47.410;9.730;2023-05-10T05:29:23;11.70;99.90
47482;DHT22;33219;47.410;9.730;2023-05-10T05:31:58;11.90;99.90
47482;DHT22;33219;47.410;9.730;2023-05-10T05:34:33;11.90;99.90
47482;DHT22;33219;47.410;9.730;2023-05-10T05:37:32;12.00;99.90
47482;DHT22;33219;47.410;9.730;2023-05-10T06:22:34;12.50;99.90
47482;DHT22;33219;47.410;9.730;2023-05-10T06:25:45;12.40;99.90
47482;DHT22;33219;47.410;9.730;2023-05-10T06:28:53;12.40;99.90
47482;DHT22;33219;47.410;9.730;2023-05-10T06:31:47;12.50;99.90
47482;DHT22;33219;47.410;9.730;2023-05-10T06:37:19;12.30;99.90
47482;DHT22;33219;47.410;9.730;2023-05-10T06:39:59;12.20;99.90
47482;DHT22;33219;47.410;9.730;2023-05-10T06:42:33;12.20;99.90
47482;DHT22;33219;47.410;9.730;2023-05-10T06:45:06;12.30;99.90
47482;DHT22;33219;47.410;9.730;2023-05-10T06:47:47;12.40;99.90
47482;DHT22;33219;47.410;9.730;2023-05-10T06:50:27;12.50;99.90
47482;DHT22;33219;47.410;9.730;2023-05-10T06:53:11;12.50;99.90
47482;DHT22;33219;47.410;9.730;2023-05-10T06:58:40;12.50;99.90
47482;DHT22;33219;47.410;9.730;2023-05-10T07:01:18;12.60;99.90
47482;DHT22;33219;47.410;9.730;2023-05-10T07:04:00;12.60;99.90
47482;DHT22;33219;47.410;9.730;2023-05-10T07:06:40;12.60;99.90
47482;DHT22;33219;47.410;9.730;2023-05-10T07:10:06;12.60;99.90
47482;DHT22;33219;47.410;9.730;2023-05-10T07:12:58;12.60;99.90
47482;DHT22;33219;47.410;9.730;2023-05-10T07:16:59;12.50;99.90
47482;DHT22;33219;47.410;9.730;2023-05-10T07:25:29;12.40;99.90
47482;DHT22;33219;47.410;9.730;2023-05-10T07:34:20;12.30;99.90
47482;DHT22;33219;47.410;9.730;2023-05-10T07:47:24;12.10;99.90
47482;DHT22;33219;47.410;9.730;2023-05-10T07:53:19;12.00;99.90
47482;DHT22;33219;47.410;9.730;2023-05-10T07:56:33;12.00;99.90
47482;DHT22;33219;47.410;9.730;2023-05-10T07:59:28;12.00;99.90
47482;DHT22;33219;47.410;9.730;2023-05-10T08:02:19;12.10;99.90
47482;DHT22;33219;47.410;9.730;2023-05-10T08:04:57;12.20;99.90
47482;DHT22;33219;47.410;9.730;2023-05-10T08:13:52;12.00;99.90
47482;DHT22;33219;47.410;9.730;2023-05-10T08:16:35;12.10;99.90
47482;DHT22;33219;47.410;9.730;2023-05-10T08:22:43;12.10;99.90
47482;DHT22;33219;47.410;9.730;2023-05-10T08:25:20;12.00;99.90
47482;DHT22;33219;47.410;9.730;2023-05-10T08:28:28;12.00;99.90
47482;DHT22;33219;47.410;9.730;2023-05-10T08:31:16;12.00;99.90
47482;DHT22;33219;47.410;9.730;2023-05-10T08:37:22;11.90;99.90
47482;DHT22;33219;47.410;9.730;2023-05-10T08:40:13;12.00;99.90
47482;DHT22;33219;47.410;9.730;2023-05-10T08:43:05;12.00;99.90
47482;DHT22;33219;47.410;9.730;2023-05-10T08:45:42;12.00;99.90
47482;DHT22;33219;47.410;9.730;2023-05-10T08:48:18;12.00;99.90
47482;DHT22;33219;47.410;9.730;2023-05-10T09:03:32;12.40;99.90
47482;DHT22;33219;47.410;9.730;2023-05-10T09:06:38;12.40;99.90
47482;DHT22;33219;47.410;9.730;2023-05-10T09:12:22;12.40;99.90
47482;DHT22;33219;47.410;9.730;2023-05-10T09:14:52;12.60;99.90
47482;DHT22;33219;47.410;9.730;2023-05-10T09:17:31;12.60;99.90
47482;DHT22;33219;47.410;9.730;2023-05-10T09:20:08;12.70;99.90
47482;DHT22;33219;47.410;9.730;2023-05-10T09:23:19;12.90;99.90
47482;DHT22;33219;47.410;9.730;2023-05-10T09:29:39;12.80;99.90
47482;DHT22;33219;47.410;9.730;2023-05-10T09:32:41;12.80;99.90
47482;DHT22;33219;47.410;9.730;2023-05-10T09:35:19;12.80;99.90
47482;DHT22;33219;47.410;9.730;2023-05-10T09:37:57;12.90;99.90
47482;DHT22;33219;47.410;9.730;2023-05-10T09:40:44;13.10;99.90
47482;DHT22;33219;47.410;9.730;2023-05-10T09:43:22;13.30;99.90
47482;DHT22;33219;47.410;9.730;2023-05-10T09:46:08;13.10;99.90
47482;DHT22;33219;47.410;9.730;2023-05-10T09:48:47;13.30;99.90
47482;DHT22;33219;47.410;9.730;2023-05-10T09:51:30;13.20;99.90
47482;DHT22;33219;47.410;9.730;2023-05-10T09:54:18;13.30;99.90
47482;DHT22;33219;47.410;9.730;2023-05-10T09:57:03;13.30;99.90
47482;DHT22;33219;47.410;9.730;2023-05-10T09:59:58;13.20;99.90
47482;DHT22;33219;47.410;9.730;2023-05-10T10:02:47;13.30;99.90
47482;DHT22;33219;47.410;9.730;2023-05-10T10:05:45;13.30;99.90
47482;DHT22;33219;47.410;9.730;2023-05-10T10:08:22;13.40;99.90
47482;DHT22;33219;47.410;9.730;2023-05-10T10:10:57;13.30;99.90
47482;DHT22;33219;47.410;9.730;2023-05-10T10:13:35;13.10;99.90
47482;DHT22;33219;47.410;9.730;2023-05-10T10:19:02;13.10;99.90
47482;DHT22;33219;47.410;9.730;2023-05-10T10:21:42;13.00;99.90
47482;DHT22;33219;47.410;9.730;2023-05-10T10:24:22;13.00;99.90
47482;DHT22;33219;47.410;9.730;2023-05-10T10:27:23;13.00;99.90
47482;DHT22;33219;47.410;9.730;2023-05-10T10:30:25;12.90;99.90
47482;DHT22;33219;47.410;9.730;2023-05-10T10:36:04;12.90;99.90
47482;DHT22;33219;47.410;9.730;2023-05-10T10:41:39;13.10;99.90
47482;DHT22;33219;47.410;9.730;2023-05-10T10:44:25;13.10;99.90
47482;DHT22;33219;47.410;9.730;2023-05-10T10:52:30;13.30;99.90
47482;DHT22;33219;47.410;9.730;2023-05-10T10:57:47;13.20;99.90
47482;DHT22;33219;47.410;9.730;2023-05-10T11:00:42;13.10;99.90
47482;DHT22;33219;47.410;9.730;2023-05-10T11:03:15;13.10;99.90
47482;DHT22;33219;47.410;9.730;2023-05-10T11:05:48;13.10;99.90
47482;DHT22;33219;47.410;9.730;2023-05-10T11:08:30;13.10;99.90
47482;DHT22;33219;47.410;9.730;2023-05-10T11:11:08;13.10;99.90
47482;DHT22;33219;47.410;9.730;2023-05-10T11:13:51;13.10;99.90
47482;DHT22;33219;47.410;9.730;2023-05-10T11:16:24;13.20;99.90
47482;DHT22;33219;47.410;9.730;2023-05-10T11:21:33;13.10;99.90
47482;DHT22;33219;47.410;9.730;2023-05-10T11:24:09;13.30;99.90
47482;DHT22;33219;47.410;9.730;2023-05-10T11:26:40;13.30;99.90
47482;DHT22;33219;47.410;9.730;2023-05-10T11:29:11;13.40;99.90
47482;DHT22;33219;47.410;9.730;2023-05-10T11:31:47;13.40;99.90
47482;DHT22;33219;47.410;9.730;2023-05-10T11:34:24;13.40;99.90
47482;DHT22;33219;47.410;9.730;2023-05-10T11:36:54;13.50;99.90
47482;DHT22;33219;47.410;9.730;2023-05-10T11:39:27;13.50;99.90
47482;DHT22;33219;47.410;9.730;2023-05-10T11:41:55;13.50;99.90
47482;DHT22;33219;47.410;9.730;2023-05-10T11:44:23;13.60;99.90
47482;DHT22;33219;47.410;9.730;2023-05-10T11:46:52;13.60;99.90
47482;DHT22;33219;47.410;9.730;2023-05-10T11:49:21;13.70;99.90
47482;DHT22;33219;47.410;9.730;2023-05-10T11:51:50;13.70;99.90
47482;DHT22;33219;47.410;9.730;2023-05-10T11:54:18;13.80;99.90
47482;DHT22;33219;47.410;9.730;2023-05-10T11:56:45;13.80;99.90
47482;DHT22;33219;47.410;9.730;2023-05-10T11:59:14;13.80;99.90
47482;DHT22;33219;47.410;9.730;2023-05-10T12:01:42;13.90;99.90
47482;DHT22;33219;47.410;9.730;2023-05-10T12:04:11;13.90;99.90
47482;DHT22;33219;47.410;9.730;2023-05-10T12:06:40;14.00;99.90
47482;DHT22;33219;47.410;9.730;2023-05-10T12:09:08;14.10;99.90
47482;DHT22;33219;47.410;9.730;2023-05-10T12:11:38;14.10;99.90
47482;DHT22;33219;47.410;9.730;2023-05-10T12:14:07;14.20;99.90
47482;DHT22;33219;47.410;9.730;2023-05-10T12:16:36;14.10;99.90
47482;DHT22;33219;47.410;9.730;2023-05-10T12:19:04;14.20;99.90
47482;DHT22;33219;47.410;9.730;2023-05-10T12:21:32;14.20;99.90
47482;DHT22;33219;47.410;9.730;2023-05-10T12:24:03;14.10;99.90
47482;DHT22;33219;47.410;9.730;2023-05-10T12:26:32;14.10;99.90
47482;DHT22;33219;47.410;9.730;2023-05-10T12:29:16;14.20;99.90
47482;DHT22;33219;47.410;9.730;2023-05-10T12:31:52;14.20;99.90
47482;DHT22;33219;47.410;9.730;2023-05-10T12:34:29;14.20;99.90
47482;DHT22;33219;47.410;9.730;2023-05-10T12:36:56;14.30;99.90
47482;DHT22;33219;47.410;9.730;2023-05-10T12:39:24;14.40;99.90
47482;DHT22;33219;47.410;9.730;2023-05-10T12:41:52;14.40;99.90
47482;DHT22;33219;47.410;9.730;2023-05-10T12:44:20;14.40;99.90
47482;DHT22;33219;47.410;9.730;2023-05-10T12:46:48;14.30;99.90
47482;DHT22;33219;47.410;9.730;2023-05-10T12:49:15;14.10;99.90
47482;DHT22;33219;47.410;9.730;2023-05-10T12:51:45;14.10;99.90
47482;DHT22;33219;47.410;9.730;2023-05-10T12:54:12;13.90;99.90
47482;DHT22;33219;47.410;9.730;2023-05-10T12:56:40;13.90;99.90
47482;DHT22;33219;47.410;9.730;2023-05-10T12:59:09;13.70;99.90
47482;DHT22;33219;47.410;9.730;2023-05-10T13:01:37;13.70;99.90
47482;DHT22;33219;47.410;9.730;2023-05-10T13:04:04;13.60;99.90
47482;DHT22;33219;47.410;9.730;2023-05-10T13:06:32;13.60;99.90
47482;DHT22;33219;47.410;9.730;2023-05-10T13:09:01;13.60;99.90
47482;DHT22;33219;47.410;9.730;2023-05-10T13:11:29;13.70;99.90
47482;DHT22;33219;47.410;9.730;2023-05-10T13:13:56;13.70;99.90
47482;DHT22;33219;47.410;9.730;2023-05-10T13:16:24;14.00;99.90
47482;DHT22;33219;47.410;9.730;2023-05-10T13:18:52;14.00;99.90
47482;DHT22;33219;47.410;9.730;2023-05-10T13:21:25;14.10;99.90
47482;DHT22;33219;47.410;9.730;2023-05-10T13:23:55;14.10;99.90
47482;DHT22;33219;47.410;9.730;2023-05-10T13:26:22;14.00;99.90
47482;DHT22;33219;47.410;9.730;2023-05-10T13:28:50;14.00;99.90
47482;DHT22;33219;47.410;9.730;2023-05-10T13:31:18;14.00;99.90
47482;DHT22;33219;47.410;9.730;2023-05-10T13:33:45;13.80;99.90
47482;DHT22;33219;47.410;9.730;2023-05-10T13:36:13;13.70;99.90
47482;DHT22;33219;47.410;9.730;2023-05-10T13:38:40;13.80;99.90
47482;DHT22;33219;47.410;9.730;2023-05-10T13:41:08;13.70;99.90
47482;DHT22;33219;47.410;9.730;2023-05-10T13:43:36;13.80;99.90
47482;DHT22;33219;47.410;9.730;2023-05-10T13:46:03;13.60;99.90
47482;DHT22;33219;47.410;9.730;2023-05-10T13:48:31;13.50;99.90
47482;DHT22;33219;47.410;9.730;2023-05-10T13:50:58;13.30;99.90
47482;DHT22;33219;47.410;9.730;2023-05-10T13:53:26;13.20;99.90
47482;DHT22;33219;47.410;9.730;2023-05-10T13:55:54;13.10;99.90
47482;DHT22;33219;47.410;9.730;2023-05-10T13:58:21;13.20;99.90
47482;DHT22;33219;47.410;9.730;2023-05-10T14:00:50;13.10;99.90
47482;DHT22;33219;47.410;9.730;2023-05-10T14:03:17;13.10;99.90
47482;DHT22;33219;47.410;9.730;2023-05-10T14:05:45;13.10;99.90
47482;DHT22;33219;47.410;9.730;2023-05-10T14:08:13;13.10;99.90
47482;DHT22;33219;47.410;9.730;2023-05-10T14:10:41;13.10;99.90
47482;DHT22;33219;47.410;9.730;2023-05-10T14:13:09;13.00;99.90
47482;DHT22;33219;47.410;9.730;2023-05-10T14:15:36;13.10;99.90
47482;DHT22;33219;47.410;9.730;2023-05-10T14:18:04;13.10;99.90
47482;DHT22;33219;47.410;9.730;2023-05-10T14:20:31;13.00;99.90
47482;DHT22;33219;47.410;9.730;2023-05-10T14:23:00;13.10;99.90
47482;DHT22;33219;47.410;9.730;2023-05-10T14:25:27;13.20;99.90
47482;DHT22;33219;47.410;9.730;2023-05-10T14:27:58;13.20;99.90
47482;DHT22;33219;47.410;9.730;2023-05-10T14:30:25;13.30;99.90
47482;DHT22;33219;47.410;9.730;2023-05-10T14:32:53;13.30;99.90
47482;DHT22;33219;47.410;9.730;2023-05-10T14:35:20;13.30;99.90
47482;DHT22;33219;47.410;9.730;2023-05-10T14:37:48;13.50;99.90
47482;DHT22;33219;47.410;9.730;2023-05-10T14:40:16;13.50;99.90
47482;DHT22;33219;47.410;9.730;2023-05-10T14:42:43;13.50;99.90
47482;DHT22;33219;47.410;9.730;2023-05-10T14:45:11;13.40;99.90
47482;DHT22;33219;47.410;9.730;2023-05-10T14:47:39;13.50;99.90
47482;DHT22;33219;47.410;9.730;2023-05-10T14:50:07;13.40;99.90
47482;DHT22;33219;47.410;9.730;2023-05-10T14:52:35;13.40;99.90
47482;DHT22;33219;47.410;9.730;2023-05-10T14:55:02;13.40;99.90
47482;DHT22;33219;47.410;9.730;2023-05-10T14:57:30;13.40;99.90
47482;DHT22;33219;47.410;9.730;2023-05-10T14:59:58;13.30;99.90
47482;DHT22;33219;47.410;9.730;2023-05-10T15:02:26;13.30;99.90
47482;DHT22;33219;47.410;9.730;2023-05-10T15:04:53;13.20;99.90
47482;DHT22;33219;47.410;9.730;2023-05-10T15:07:21;13.20;99.90
47482;DHT22;33219;47.410;9.730;2023-05-10T15:09:49;13.30;99.90
47482;DHT22;33219;47.410;9.730;2023-05-10T15:12:18;13.30;99.90
47482;DHT22;33219;47.410;9.730;2023-05-10T15:14:46;13.20;99.90
47482;DHT22;33219;47.410;9.730;2023-05-10T15:17:14;13.30;99.90
47482;DHT22;33219;47.410;9.730;2023-05-10T15:19:42;13.30;99.90
47482;DHT22;33219;47.410;9.730;2023-05-10T15:22:10;13.30;99.90
47482;DHT22;33219;47.410;9.730;2023-05-10T15:24:37;13.20;99.90
47482;DHT22;33219;47.410;9.730;2023-05-10T15:27:05;13.10;99.90
47482;DHT22;33219;47.410;9.730;2023-05-10T15:29:33;13.20;99.90
47482;DHT22;33219;47.410;9.730;2023-05-10T15:32:01;13.30;99.90
47482;DHT22;33219;47.410;9.730;2023-05-10T15:34:29;13.20;99.90
47482;DHT22;33219;47.410;9.730;2023-05-10T15:36:57;13.20;99.90
47482;DHT22;33219;47.410;9.730;2023-05-10T15:39:25;13.30;99.90
47482;DHT22;33219;47.410;9.730;2023-05-10T15:41:52;13.30;99.90
47482;DHT22;33219;47.410;9.730;2023-05-10T15:44:20;13.30;99.90
47482;DHT22;33219;47.410;9.730;2023-05-10T15:46:48;13.20;99.90
47482;DHT22;33219;47.410;9.730;2023-05-10T15:49:16;13.10;99.90
47482;DHT22;33219;47.410;9.730;2023-05-10T15:51:43;13.00;99.90
47482;DHT22;33219;47.410;9.730;2023-05-10T15:54:11;13.00;99.90
47482;DHT22;33219;47.410;9.730;2023-05-10T15:56:38;13.10;99.90
47482;DHT22;33219;47.410;9.730;2023-05-10T15:59:06;13.10;99.90
47482;DHT22;33219;47.410;9.730;2023-05-10T16:01:36;13.10;99.90
47482;DHT22;33219;47.410;9.730;2023-05-10T16:04:03;13.10;99.90
47482;DHT22;33219;47.410;9.730;2023-05-10T16:06:31;13.10;99.90
47482;DHT22;33219;47.410;9.730;2023-05-10T16:08:59;13.10;99.90
47482;DHT22;33219;47.410;9.730;2023-05-10T16:11:27;13.00;99.90
47482;DHT22;33219;47.410;9.730;2023-05-10T16:13:54;13.10;99.90
47482;DHT22;33219;47.410;9.730;2023-05-10T16:16:22;13.00;99.90
47482;DHT22;33219;47.410;9.730;2023-05-10T16:18:51;13.00;99.90
47482;DHT22;33219;47.410;9.730;2023-05-10T16:21:18;12.90;99.90
47482;DHT22;33219;47.410;9.730;2023-05-10T16:23:46;13.00;99.90
47482;DHT22;33219;47.410;9.730;2023-05-10T16:26:14;13.00;99.90
47482;DHT22;33219;47.410;9.730;2023-05-10T16:28:41;12.90;99.90
47482;DHT22;33219;47.410;9.730;2023-05-10T16:31:09;12.90;99.90
47482;DHT22;33219;47.410;9.730;2023-05-10T16:33:36;12.90;99.90
47482;DHT22;33219;47.410;9.730;2023-05-10T16:36:04;12.90;99.90
47482;DHT22;33219;47.410;9.730;2023-05-10T16:38:32;12.90;99.90
47482;DHT22;33219;47.410;9.730;2023-05-10T16:41:01;12.90;99.90
47482;DHT22;33219;47.410;9.730;2023-05-10T16:43:34;12.90;99.90
47482;DHT22;33219;47.410;9.730;2023-05-10T16:45:58;12.90;99.90
47482;DHT22;33219;47.410;9.730;2023-05-10T16:48:26;12.90;99.90
47482;DHT22;33219;47.410;9.730;2023-05-10T16:50:53;12.90;99.90
47482;DHT22;33219;47.410;9.730;2023-05-10T16:53:21;12.90;99.90
47482;DHT22;33219;47.410;9.730;2023-05-10T16:55:48;12.90;99.90
47482;DHT22;33219;47.410;9.730;2023-05-10T16:58:16;12.90;99.90
47482;DHT22;33219;47.410;9.730;2023-05-10T17:00:44;12.80;99.90
47482;DHT22;33219;47.410;9.730;2023-05-10T17:03:12;12.70;99.90
47482;DHT22;33219;47.410;9.730;2023-05-10T17:05:40;12.70;99.90
47482;DHT22;33219;47.410;9.730;2023-05-10T17:08:08;12.60;99.90
47482;DHT22;33219;47.410;9.730;2023-05-10T17:10:40;12.70;99.90
47482;DHT22;33219;47.410;9.730;2023-05-10T17:13:08;12.60;99.90
47482;DHT22;33219;47.410;9.730;2023-05-10T17:15:36;12.60;99.90
47482;DHT22;33219;47.410;9.730;2023-05-10T17:18:04;12.60;99.90
47482;DHT22;33219;47.410;9.730;2023-05-10T17:20:33;12.50;99.90
47482;DHT22;33219;47.410;9.730;2023-05-10T17:23:00;12.40;99.90
47482;DHT22;33219;47.410;9.730;2023-05-10T17:25:28;12.40;99.90
47482;DHT22;33219;47.410;9.730;2023-05-10T17:27:56;12.30;99.90
47482;DHT22;33219;47.410;9.730;2023-05-10T17:30:24;12.20;99.90
47482;DHT22;33219;47.410;9.730;2023-05-10T17:32:53;12.20;99.90
47482;DHT22;33219;47.410;9.730;2023-05-10T17:35:20;12.10;99.90
47482;DHT22;33219;47.410;9.730;2023-05-10T17:37:48;12.10;99.90
47482;DHT22;33219;47.410;9.730;2023-05-10T17:40:16;12.00;99.90
47482;DHT22;33219;47.410;9.730;2023-05-10T17:42:43;12.10;99.90
47482;DHT22;33219;47.410;9.730;2023-05-10T17:45:11;12.00;99.90
47482;DHT22;33219;47.410;9.730;2023-05-10T17:47:39;12.00;99.90
47482;DHT22;33219;47.410;9.730;2023-05-10T17:50:07;12.00;99.90
47482;DHT22;33219;47.410;9.730;2023-05-10T17:52:35;11.90;99.90
47482;DHT22;33219;47.410;9.730;2023-05-10T17:55:03;11.90;99.90
47482;DHT22;33219;47.410;9.730;2023-05-10T17:57:31;11.80;99.90
47482;DHT22;33219;47.410;9.730;2023-05-10T17:59:58;11.80;99.90
47482;DHT22;33219;47.410;9.730;2023-05-10T18:02:27;11.80;99.90
47482;DHT22;33219;47.410;9.730;2023-05-10T18:04:55;11.70;99.90
47482;DHT22;33219;47.410;9.730;2023-05-10T18:07:23;11.60;99.90
47482;DHT22;33219;47.410;9.730;2023-05-10T18:09:51;11.50;99.90
47482;DHT22;33219;47.410;9.730;2023-05-10T18:12:19;11.40;99.90
47482;DHT22;33219;47.410;9.730;2023-05-10T18:14:46;11.30;99.90
47482;DHT22;33219;47.410;9.730;2023-05-10T18:17:14;11.40;99.90
47482;DHT22;33219;47.410;9.730;2023-05-10T18:19:42;11.40;99.90
47482;DHT22;33219;47.410;9.730;2023-05-10T18:22:09;11.30;99.90